sensor_id;sensor_type;location;lat;lon;timestamp;temperature;humidity
3380;DHT22;1703;51.964;7.642;2023-08-07T00:01:31;15.00;99.90
3380;DHT22;1703;51.964;7.642;2023-08-07T00:03:58;15.00;99.90
3380;DHT22;1703;51.964;7.642;2023-08-07T00:06:25;15.00;99.90
3380;DHT22;1703;51.964;7.642;2023-08-07T00:08:52;15.00;99.90
3380;DHT22;1703;51.964;7.642;2023-08-07T00:11:19;15.00;99.90
3380;DHT22;1703;51.964;7.642;2023-08-07T00:13:45;15.00;99.90
3380;DHT22;1703;51.964;7.642;2023-08-07T00:16:12;15.10;99.90
3380;DHT22;1703;51.964;7.642;2023-08-07T00:18:40;15.10;99.90
3380;DHT22;1703;51.964;7.642;2023-08-07T00:21:07;15.10;99.90
3380;DHT22;1703;51.964;7.642;2023-08-07T00:23:34;15.10;99.90
3380;DHT22;1703;51.964;7.642;2023-08-07T00:26:01;15.10;99.90
3380;DHT22;1703;51.964;7.642;2023-08-07T00:28:27;15.10;99.90
3380;DHT22;1703;51.964;7.642;2023-08-07T00:30:55;15.20;99.90
3380;DHT22;1703;51.964;7.642;2023-08-07T00:33:22;15.20;99.90
3380;DHT22;1703;51.964;7.642;2023-08-07T00:35:50;15.20;99.90
3380;DHT22;1703;51.964;7.642;2023-08-07T00:38:17;15.20;99.90
3380;DHT22;1703;51.964;7.642;2023-08-07T00:40:44;15.20;99.90
3380;DHT22;1703;51.964;7.642;2023-08-07T00:43:11;15.20;99.90
3380;DHT22;1703;51.964;7.642;2023-08-07T00:45:42;15.20;99.90
3380;DHT22;1703;51.964;7.642;2023-08-07T00:48:10;15.20;99.90
3380;DHT22;1703;51.964;7.642;2023-08-07T00:50:37;15.20;99.90
3380;DHT22;1703;51.964;7.642;2023-08-07T00:53:06;15.20;99.90
3380;DHT22;1703;51.964;7.642;2023-08-07T00:55:33;15.20;99.90
3380;DHT22;1703;51.964;7.642;2023-08-07T00:58:00;15.20;99.90
3380;DHT22;1703;51.964;7.642;2023-08-07T01:00:28;15.20;99.90
3380;DHT22;1703;51.964;7.642;2023-08-07T01:02:56;15.20;99.90
3380;DHT22;1703;51.964;7.642;2023-08-07T01:05:24;15.20;99.90
3380;DHT22;1703;51.964;7.642;2023-08-07T01:07:53;15.20;99.90
3380;DHT22;1703;51.964;7.642;2023-08-07T01:10:29;15.20;99.90
3380;DHT22;1703;51.964;7.642;2023-08-07T01:13:04;15.20;99.90
3380;DHT22;1703;51.964;7.642;2023-08-07T01:15:35;15.30;99.90
3380;DHT22;1703;51.964;7.642;2023-08-07T01:18:05;15.20;99.90
3380;DHT22;1703;51.964;7.642;2023-08-07T01:20:33;15.20;99.90
3380;DHT22;1703;51.964;7.642;2023-08-07T01:23:01;15.20;99.90
3380;DHT22;1703;51.964;7.642;2023-08-07T01:25:28;15.20;99.90
3380;DHT22;1703;51.964;7.642;2023-08-07T01:28:02;15.20;99.90
3380;DHT22;1703;51.964;7.642;2023-08-07T01:30:36;15.20;99.90
3380;DHT22;1703;51.964;7.642;2023-08-07T01:33:10;15.20;99.90
3380;DHT22;1703;51.964;7.642;2023-08-07T01:39:03;15.20;99.90
3380;DHT22;1703;51.964;7.642;2023-08-07T01:41:32;15.20;99.90
3380;DHT22;1703;51.964;7.642;2023-08-07T01:44:00;15.10;99.90
3380;DHT22;1703;51.964;7.642;2023-08-07T01:46:28;15.10;99.90
3380;DHT22;1703;51.964;7.642;2023-08-07T01:48:55;15.20;99.90
3380;DHT22;1703;51.964;7.642;2023-08-07T01:51:22;15.10;99.90
3380;DHT22;1703;51.964;7.642;2023-08-07T01:53:49;15.20;99.90
3380;DHT22;1703;51.964;7.642;2023-08-07T01:56:17;15.30;99.90
3380;DHT22;1703;51.964;7.642;2023-08-07T01:58:44;15.30;99.90
3380;DHT22;1703;51.964;7.642;2023-08-07T02:01:11;15.30;99.90
3380;DHT22;1703;51.964;7.642;2023-08-07T02:03:38;15.30;99.90
3380;DHT22;1703;51.964;7.642;2023-08-07T02:06:05;15.30;99.90
3380;DHT22;1703;51.964;7.642;2023-08-07T02:08:32;15.30;99.90
3380;DHT22;1703;51.964;7.642;2023-08-07T02:10:58;15.30;99.90
3380;DHT22;1703;51.964;7.642;2023-08-07T02:13:28;15.30;99.90
3380;DHT22;1703;51.964;7.642;2023-08-07T02:15:55;15.30;99.90
3380;DHT22;1703;51.964;7.642;2023-08-07T02:18:22;15.30;99.90
3380;DHT22;1703;51.964;7.642;2023-08-07T02:20:50;15.30;99.90
3380;DHT22;1703;51.964;7.642;2023-08-07T02:23:17;15.30;99.90
3380;DHT22;1703;51.964;7.642;2023-08-07T02:25:44;15.30;99.90
3380;DHT22;1703;51.964;7.642;2023-08-07T02:28:11;15.40;99.90
3380;DHT22;1703;51.964;7.642;2023-08-07T02:30:39;15.30;99.90
3380;DHT22;1703;51.964;7.642;2023-08-07T02:33:05;15.30;99.90
3380;DHT22;1703;51.964;7.642;2023-08-07T02:35:32;15.30;99.90
3380;DHT22;1703;51.964;7.642;2023-08-07T02:37:59;15.20;99.90
3380;DHT22;1703;51.964;7.642;2023-08-07T02:40:26;15.20;99.90
3380;DHT22;1703;51.964;7.642;2023-08-07T02:42:53;15.20;99.90
3380;DHT22;1703;51.964;7.642;2023-08-07T02:45:19;15.20;99.90
3380;DHT22;1703;51.964;7.642;2023-08-07T02:47:48;15.20;99.90
3380;DHT22;1703;51.964;7.642;2023-08-07T02:50:14;15.20;99.90
3380;DHT22;1703;51.964;7.642;2023-08-07T02:52:41;15.20;99.90
3380;DHT22;1703;51.964;7.642;2023-08-07T02:55:08;15.20;99.90
3380;DHT22;1703;51.964;7.642;2023-08-07T02:57:35;15.20;99.90
3380;DHT22;1703;51.964;7.642;2023-08-07T03:00:02;15.20;99.90
3380;DHT22;1703;51.964;7.642;2023-08-07T03:02:29;15.20;99.90
3380;DHT22;1703;51.964;7.642;2023-08-07T03:04:57;15.20;99.90
3380;DHT22;1703;51.964;7.642;2023-08-07T03:07:25;15.20;99.90
3380;DHT22;1703;51.964;7.642;2023-08-07T03:09:52;15.20;99.90
3380;DHT22;1703;51.964;7.642;2023-08-07T03:12:19;15.10;99.90
3380;DHT22;1703;51.964;7.642;2023-08-07T03:14:45;15.10;99.90
3380;DHT22;1703;51.964;7.642;2023-08-07T03:17:12;15.10;99.90
3380;DHT22;1703;51.964;7.642;2023-08-07T03:19:41;15.10;99.90
3380;DHT22;1703;51.964;7.642;2023-08-07T03:22:10;15.00;99.90
3380;DHT22;1703;51.964;7.642;2023-08-07T03:24:36;15.00;99.90
3380;DHT22;1703;51.964;7.642;2023-08-07T03:27:04;15.00;99.90
3380;DHT22;1703;51.964;7.642;2023-08-07T03:29:31;15.00;99.90
3380;DHT22;1703;51.964;7.642;2023-08-07T03:31:58;15.00;99.90
3380;DHT22;1703;51.964;7.642;2023-08-07T03:34:25;15.00;99.90
3380;DHT22;1703;51.964;7.642;2023-08-07T03:36:54;15.00;99.90
3380;DHT22;1703;51.964;7.642;2023-08-07T03:39:24;15.00;99.90
3380;DHT22;1703;51.964;7.642;2023-08-07T03:41:51;15.00;99.90
3380;DHT22;1703;51.964;7.642;2023-08-07T03:51:20;14.90;99.90
3380;DHT22;1703;51.964;7.642;2023-08-07T03:53:51;14.90;99.90
3380;DHT22;1703;51.964;7.642;2023-08-07T03:56:19;14.80;99.90
3380;DHT22;1703;51.964;7.642;2023-08-07T03:58:46;14.90;99.90
3380;DHT22;1703;51.964;7.642;2023-08-07T04:01:15;14.90;99.90
3380;DHT22;1703;51.964;7.642;2023-08-07T04:03:42;14.90;99.90
3380;DHT22;1703;51.964;7.642;2023-08-07T04:06:08;14.90;99.90
3380;DHT22;1703;51.964;7.642;2023-08-07T04:08:38;14.80;99.90
3380;DHT22;1703;51.964;7.642;2023-08-07T04:11:05;14.80;99.90
3380;DHT22;1703;51.964;7.642;2023-08-07T04:13:35;14.80;99.90
3380;DHT22;1703;51.964;7.642;2023-08-07T04:16:02;14.80;99.90
3380;DHT22;1703;51.964;7.642;2023-08-07T04:18:30;14.80;99.90
3380;DHT22;1703;51.964;7.642;2023-08-07T04:20:57;14.80;99.90
3380;DHT22;1703;51.964;7.642;2023-08-07T04:23:24;14.80;99.90
3380;DHT22;1703;51.964;7.642;2023-08-07T04:25:52;14.80;99.90
3380;DHT22;1703;51.964;7.642;2023-08-07T04:28:19;14.90;99.90
3380;DHT22;1703;51.964;7.642;2023-08-07T04:30:50;14.90;99.90
3380;DHT22;1703;51.964;7.642;2023-08-07T04:33:18;14.90;99.90
3380;DHT22;1703;51.964;7.642;2023-08-07T04:35:44;14.90;99.90
3380;DHT22;1703;51.964;7.642;2023-08-07T04:38:12;14.90;99.90
3380;DHT22;1703;51.964;7.642;2023-08-07T04:40:43;15.00;99.90
3380;DHT22;1703;51.964;7.642;2023-08-07T04:43:10;14.90;99.90
3380;DHT22;1703;51.964;7.642;2023-08-07T04:45:37;14.90;99.90
3380;DHT22;1703;51.964;7.642;2023-08-07T04:48:06;14.80;99.90
3380;DHT22;1703;51.964;7.642;2023-08-07T04:50:33;14.80;99.90
3380;DHT22;1703;51.964;7.642;2023-08-07T04:53:00;14.80;99.90
3380;DHT22;1703;51.964;7.642;2023-08-07T04:55:27;14.80;99.90
3380;DHT22;1703;51.964;7.642;2023-08-07T04:57:53;14.80;99.90
3380;DHT22;1703;51.964;7.642;2023-08-07T05:00:22;14.80;99.90
3380;DHT22;1703;51.964;7.642;2023-08-07T05:02:48;14.80;99.90
3380;DHT22;1703;51.964;7.642;2023-08-07T05:05:17;14.80;99.90
3380;DHT22;1703;51.964;7.642;2023-08-07T05:07:46;14.80;99.90
3380;DHT22;1703;51.964;7.642;2023-08-07T05:10:13;14.70;99.90
3380;DHT22;1703;51.964;7.642;2023-08-07T05:12:40;14.80;99.90
3380;DHT22;1703;51.964;7.642;2023-08-07T05:15:07;14.80;99.90
3380;DHT22;1703;51.964;7.642;2023-08-07T05:17:34;14.70;99.90
3380;DHT22;1703;51.964;7.642;2023-08-07T05:20:01;14.70;99.90
3380;DHT22;1703;51.964;7.642;2023-08-07T05:22:29;14.70;99.90
3380;DHT22;1703;51.964;7.642;2023-08-07T05:24:56;14.70;99.90
3380;DHT22;1703;51.964;7.642;2023-08-07T05:27:23;14.80;99.90
3380;DHT22;1703;51.964;7.642;2023-08-07T05:29:49;14.80;99.90
3380;DHT22;1703;51.964;7.642;2023-08-07T05:32:16;14.90;99.90
3380;DHT22;1703;51.964;7.642;2023-08-07T05:34:43;14.80;99.90
3380;DHT22;1703;51.964;7.642;2023-08-07T05:37:10;14.90;99.90
3380;DHT22;1703;51.964;7.642;2023-08-07T05:39:39;14.90;99.90
3380;DHT22;1703;51.964;7.642;2023-08-07T05:42:06;14.90;99.90
3380;DHT22;1703;51.964;7.642;2023-08-07T05:44:33;14.90;99.90
3380;DHT22;1703;51.964;7.642;2023-08-07T05:47:00;14.90;99.90
3380;DHT22;1703;51.964;7.642;2023-08-07T05:49:26;14.90;99.90
3380;DHT22;1703;51.964;7.642;2023-08-07T05:51:53;14.90;99.90
3380;DHT22;1703;51.964;7.642;2023-08-07T05:54:20;14.90;99.90
3380;DHT22;1703;51.964;7.642;2023-08-07T05:56:49;14.90;99.90
3380;DHT22;1703;51.964;7.642;2023-08-07T05:59:15;15.00;99.90
3380;DHT22;1703;51.964;7.642;2023-08-07T06:01:42;15.10;99.90
3380;DHT22;1703;51.964;7.642;2023-08-07T06:04:09;15.00;99.90
3380;DHT22;1703;51.964;7.642;2023-08-07T06:06:36;15.10;99.90
3380;DHT22;1703;51.964;7.642;2023-08-07T06:09:05;15.10;99.90
3380;DHT22;1703;51.964;7.642;2023-08-07T06:11:32;15.10;99.90
3380;DHT22;1703;51.964;7.642;2023-08-07T06:14:00;15.10;99.90
3380;DHT22;1703;51.964;7.642;2023-08-07T06:16:28;15.10;99.90
3380;DHT22;1703;51.964;7.642;2023-08-07T06:18:54;15.20;99.90
3380;DHT22;1703;51.964;7.642;2023-08-07T06:21:21;15.20;99.90
3380;DHT22;1703;51.964;7.642;2023-08-07T06:23:48;15.20;99.90
3380;DHT22;1703;51.964;7.642;2023-08-07T06:26:15;15.30;99.90
3380;DHT22;1703;51.964;7.642;2023-08-07T06:28:42;15.30;99.90
3380;DHT22;1703;51.964;7.642;2023-08-07T06:31:11;15.30;99.90
3380;DHT22;1703;51.964;7.642;2023-08-07T06:33:39;15.20;99.90
3380;DHT22;1703;51.964;7.642;2023-08-07T06:36:06;15.30;99.90
3380;DHT22;1703;51.964;7.642;2023-08-07T06:38:34;15.30;99.90
3380;DHT22;1703;51.964;7.642;2023-08-07T06:41:02;15.30;99.90
3380;DHT22;1703;51.964;7.642;2023-08-07T06:43:29;15.30;99.90
3380;DHT22;1703;51.964;7.642;2023-08-07T06:45:57;15.30;99.90
3380;DHT22;1703;51.964;7.642;2023-08-07T06:48:25;15.30;99.90
3380;DHT22;1703;51.964;7.642;2023-08-07T06:50:52;15.30;99.90
3380;DHT22;1703;51.964;7.642;2023-08-07T06:53:19;15.40;99.90
3380;DHT22;1703;51.964;7.642;2023-08-07T06:55:46;15.40;99.90
3380;DHT22;1703;51.964;7.642;2023-08-07T06:58:12;15.50;99.90
3380;DHT22;1703;51.964;7.642;2023-08-07T07:00:39;15.50;99.90
3380;DHT22;1703;51.964;7.642;2023-08-07T07:03:06;15.50;99.90
3380;DHT22;1703;51.964;7.642;2023-08-07T07:05:36;15.50;99.90
3380;DHT22;1703;51.964;7.642;2023-08-07T07:08:03;15.60;99.90
3380;DHT22;1703;51.964;7.642;2023-08-07T07:10:30;15.60;99.90
3380;DHT22;1703;51.964;7.642;2023-08-07T07:12:57;15.60;99.90
3380;DHT22;1703;51.964;7.642;2023-08-07T07:15:24;15.70;99.90
3380;DHT22;1703;51.964;7.642;2023-08-07T07:17:51;15.70;99.90
3380;DHT22;1703;51.964;7.642;2023-08-07T07:20:18;15.70;99.90
3380;DHT22;1703;51.964;7.642;2023-08-07T07:22:47;15.80;99.90
3380;DHT22;1703;51.964;7.642;2023-08-07T07:25:14;15.80;99.90
3380;DHT22;1703;51.964;7.642;2023-08-07T07:27:41;15.80;99.90
3380;DHT22;1703;51.964;7.642;2023-08-07T07:30:08;15.80;99.90
3380;DHT22;1703;51.964;7.642;2023-08-07T07:32:35;15.80;99.90
3380;DHT22;1703;51.964;7.642;2023-08-07T07:35:02;15.90;99.90
3380;DHT22;1703;51.964;7.642;2023-08-07T07:37:30;16.00;99.90
3380;DHT22;1703;51.964;7.642;2023-08-07T07:39:58;16.00;99.90
3380;DHT22;1703;51.964;7.642;2023-08-07T07:42:25;16.10;99.90
3380;DHT22;1703;51.964;7.642;2023-08-07T07:44:52;16.10;99.90
3380;DHT22;1703;51.964;7.642;2023-08-07T07:47:19;16.20;99.90
3380;DHT22;1703;51.964;7.642;2023-08-07T07:49:47;16.20;99.90
3380;DHT22;1703;51.964;7.642;2023-08-07T07:52:13;16.30;99.90
3380;DHT22;1703;51.964;7.642;2023-08-07T07:54:40;16.30;99.90
3380;DHT22;1703;51.964;7.642;2023-08-07T07:57:09;16.30;99.90
3380;DHT22;1703;51.964;7.642;2023-08-07T07:59:36;16.20;99.90
3380;DHT22;1703;51.964;7.642;2023-08-07T08:02:03;16.20;99.90
3380;DHT22;1703;51.964;7.642;2023-08-07T08:04:30;16.00;99.90
3380;DHT22;1703;51.964;7.642;2023-08-07T08:06:57;15.90;99.90
3380;DHT22;1703;51.964;7.642;2023-08-07T08:09:25;15.80;99.90
3380;DHT22;1703;51.964;7.642;2023-08-07T08:11:53;15.70;99.90
3380;DHT22;1703;51.964;7.642;2023-08-07T08:24:15;15.60;99.90
3380;DHT22;1703;51.964;7.642;2023-08-07T08:26:57;15.70;99.90
3380;DHT22;1703;51.964;7.642;2023-08-07T08:29:58;15.80;99.90
3380;DHT22;1703;51.964;7.642;2023-08-07T08:32:27;15.90;99.90
3380;DHT22;1703;51.964;7.642;2023-08-07T08:34:53;16.00;99.90
3380;DHT22;1703;51.964;7.642;2023-08-07T08:37:21;16.10;99.90
3380;DHT22;1703;51.964;7.642;2023-08-07T08:39:48;16.20;99.90
3380;DHT22;1703;51.964;7.642;2023-08-07T08:42:15;16.30;99.90
3380;DHT22;1703;51.964;7.642;2023-08-07T08:44:47;16.30;99.90
3380;DHT22;1703;51.964;7.642;2023-08-07T08:47:16;16.30;99.90
3380;DHT22;1703;51.964;7.642;2023-08-07T08:49:47;16.20;99.90
3380;DHT22;1703;51.964;7.642;2023-08-07T08:52:14;15.90;99.90
3380;DHT22;1703;51.964;7.642;2023-08-07T08:54:42;15.80;99.90
3380;DHT22;1703;51.964;7.642;2023-08-07T08:57:11;15.60;99.90
3380;DHT22;1703;51.964;7.642;2023-08-07T08:59:38;15.40;99.90
3380;DHT22;1703;51.964;7.642;2023-08-07T09:02:06;15.50;99.90
3380;DHT22;1703;51.964;7.642;2023-08-07T09:04:33;15.30;99.90
3380;DHT22;1703;51.964;7.642;2023-08-07T09:07:01;15.40;99.90
3380;DHT22;1703;51.964;7.642;2023-08-07T09:09:28;15.50;99.90
3380;DHT22;1703;51.964;7.642;2023-08-07T09:11:57;15.70;99.90
3380;DHT22;1703;51.964;7.642;2023-08-07T09:14:27;15.70;99.90
3380;DHT22;1703;51.964;7.642;2023-08-07T09:16:59;15.80;99.90
3380;DHT22;1703;51.964;7.642;2023-08-07T09:19:27;15.90;99.90
3380;DHT22;1703;51.964;7.642;2023-08-07T09:21:54;16.00;99.90
3380;DHT22;1703;51.964;7.642;2023-08-07T09:24:22;16.20;99.90
3380;DHT22;1703;51.964;7.642;2023-08-07T09:26:50;16.30;99.90
3380;DHT22;1703;51.964;7.642;2023-08-07T09:29:18;16.30;99.90
3380;DHT22;1703;51.964;7.642;2023-08-07T09:31:44;16.20;99.90
3380;DHT22;1703;51.964;7.642;2023-08-07T09:34:12;16.20;99.90
3380;DHT22;1703;51.964;7.642;2023-08-07T09:36:41;16.10;99.90
3380;DHT22;1703;51.964;7.642;2023-08-07T09:39:08;16.10;99.90
3380;DHT22;1703;51.964;7.642;2023-08-07T09:41:37;16.20;99.90
3380;DHT22;1703;51.964;7.642;2023-08-07T09:44:07;16.20;99.90
3380;DHT22;1703;51.964;7.642;2023-08-07T09:46:41;16.20;99.90
3380;DHT22;1703;51.964;7.642;2023-08-07T09:49:07;16.20;99.90
3380;DHT22;1703;51.964;7.642;2023-08-07T09:51:41;16.20;99.90
3380;DHT22;1703;51.964;7.642;2023-08-07T09:54:08;16.20;99.90
3380;DHT22;1703;51.964;7.642;2023-08-07T09:56:38;16.10;99.90
3380;DHT22;1703;51.964;7.642;2023-08-07T09:59:06;16.10;99.90
3380;DHT22;1703;51.964;7.642;2023-08-07T10:01:36;16.10;99.90
3380;DHT22;1703;51.964;7.642;2023-08-07T10:04:03;16.20;99.90
3380;DHT22;1703;51.964;7.642;2023-08-07T10:06:30;16.30;99.90
3380;DHT22;1703;51.964;7.642;2023-08-07T10:09:32;16.50;99.90
3380;DHT22;1703;51.964;7.642;2023-08-07T10:12:00;16.50;99.90
3380;DHT22;1703;51.964;7.642;2023-08-07T10:14:28;16.60;99.90
3380;DHT22;1703;51.964;7.642;2023-08-07T10:16:55;16.70;99.90
3380;DHT22;1703;51.964;7.642;2023-08-07T10:19:22;16.80;99.90
3380;DHT22;1703;51.964;7.642;2023-08-07T10:21:49;16.90;99.90
3380;DHT22;1703;51.964;7.642;2023-08-07T10:24:17;17.00;99.90
3380;DHT22;1703;51.964;7.642;2023-08-07T10:26:47;17.20;99.90
3380;DHT22;1703;51.964;7.642;2023-08-07T10:33:04;17.40;99.90
3380;DHT22;1703;51.964;7.642;2023-08-07T10:43:17;17.40;99.90
3380;DHT22;1703;51.964;7.642;2023-08-07T10:45:44;16.70;99.90
3380;DHT22;1703;51.964;7.642;2023-08-07T10:48:17;16.40;99.90
3380;DHT22;1703;51.964;7.642;2023-08-07T10:50:50;16.10;99.90
3380;DHT22;1703;51.964;7.642;2023-08-07T10:53:21;16.00;99.90
3380;DHT22;1703;51.964;7.642;2023-08-07T10:55:54;15.90;99.90
3380;DHT22;1703;51.964;7.642;2023-08-07T11:05:59;16.10;99.90
3380;DHT22;1703;51.964;7.642;2023-08-07T11:08:26;16.30;99.90
3380;DHT22;1703;51.964;7.642;2023-08-07T11:10:53;16.50;99.90
3380;DHT22;1703;51.964;7.642;2023-08-07T11:13:21;16.60;99.90
3380;DHT22;1703;51.964;7.642;2023-08-07T11:15:49;16.70;99.90
3380;DHT22;1703;51.964;7.642;2023-08-07T11:18:16;16.80;99.90
3380;DHT22;1703;51.964;7.642;2023-08-07T11:20:44;16.90;99.90
3380;DHT22;1703;51.964;7.642;2023-08-07T11:23:13;17.00;99.90
3380;DHT22;1703;51.964;7.642;2023-08-07T11:25:41;17.10;99.90
3380;DHT22;1703;51.964;7.642;2023-08-07T11:28:08;17.10;99.90
3380;DHT22;1703;51.964;7.642;2023-08-07T11:30:35;17.30;99.90
3380;DHT22;1703;51.964;7.642;2023-08-07T11:33:02;17.40;99.90
3380;DHT22;1703;51.964;7.642;2023-08-07T11:39:18;17.50;99.90
3380;DHT22;1703;51.964;7.642;2023-08-07T11:41:45;17.50;99.90
3380;DHT22;1703;51.964;7.642;2023-08-07T11:44:12;17.50;99.90
3380;DHT22;1703;51.964;7.642;2023-08-07T11:54:15;17.80;99.90
3380;DHT22;1703;51.964;7.642;2023-08-07T11:56:45;18.00;99.90
3380;DHT22;1703;51.964;7.642;2023-08-07T11:59:12;17.90;99.90
3380;DHT22;1703;51.964;7.642;2023-08-07T12:01:42;17.80;99.90
3380;DHT22;1703;51.964;7.642;2023-08-07T12:04:10;17.90;99.90
3380;DHT22;1703;51.964;7.642;2023-08-07T12:06:37;17.90;99.90
3380;DHT22;1703;51.964;7.642;2023-08-07T12:09:05;17.90;99.90
3380;DHT22;1703;51.964;7.642;2023-08-07T12:11:37;18.00;99.90
3380;DHT22;1703;51.964;7.642;2023-08-07T12:14:06;18.20;99.90
3380;DHT22;1703;51.964;7.642;2023-08-07T12:16:35;18.20;99.90
3380;DHT22;1703;51.964;7.642;2023-08-07T12:31:02;18.00;99.90
3380;DHT22;1703;51.964;7.642;2023-08-07T12:33:29;18.10;99.90
3380;DHT22;1703;51.964;7.642;2023-08-07T12:35:56;18.10;99.90
3380;DHT22;1703;51.964;7.642;2023-08-07T12:46:06;18.00;99.90
3380;DHT22;1703;51.964;7.642;2023-08-07T12:52:20;18.10;99.90
3380;DHT22;1703;51.964;7.642;2023-08-07T12:54:47;18.30;99.90
3380;DHT22;1703;51.964;7.642;2023-08-07T12:57:14;18.20;99.90
3380;DHT22;1703;51.964;7.642;2023-08-07T12:59:41;18.40;99.90
3380;DHT22;1703;51.964;7.642;2023-08-07T13:02:09;18.40;99.90
3380;DHT22;1703;51.964;7.642;2023-08-07T13:04:36;18.40;99.90
3380;DHT22;1703;51.964;7.642;2023-08-07T13:14:38;18.50;99.90
3380;DHT22;1703;51.964;7.642;2023-08-07T13:20:53;18.40;99.90
3380;DHT22;1703;51.964;7.642;2023-08-07T13:34:45;18.60;99.90
3380;DHT22;1703;51.964;7.642;2023-08-07T13:37:13;18.50;99.90
3380;DHT22;1703;51.964;7.642;2023-08-07T13:39:40;18.60;99.90
3380;DHT22;1703;51.964;7.642;2023-08-07T13:42:07;19.10;99.90
3380;DHT22;1703;51.964;7.642;2023-08-07T13:44:36;19.90;99.90
3380;DHT22;1703;51.964;7.642;2023-08-07T13:47:03;20.80;99.90
3380;DHT22;1703;51.964;7.642;2023-08-07T13:49:30;20.80;99.90
3380;DHT22;1703;51.964;7.642;2023-08-07T13:51:57;20.60;99.90
3380;DHT22;1703;51.964;7.642;2023-08-07T13:54:25;20.80;99.90
3380;DHT22;1703;51.964;7.642;2023-08-07T13:56:52;20.90;99.90
3380;DHT22;1703;51.964;7.642;2023-08-07T13:59:18;21.60;99.90
3380;DHT22;1703;51.964;7.642;2023-08-07T14:01:45;21.60;99.90
3380;DHT22;1703;51.964;7.642;2023-08-07T14:04:12;21.80;99.90
3380;DHT22;1703;51.964;7.642;2023-08-07T14:06:40;21.70;99.90
3380;DHT22;1703;51.964;7.642;2023-08-07T14:09:08;21.20;99.90
3380;DHT22;1703;51.964;7.642;2023-08-07T14:11:37;20.70;99.90
3380;DHT22;1703;51.964;7.642;2023-08-07T14:14:04;20.40;99.90
3380;DHT22;1703;51.964;7.642;2023-08-07T14:16:31;20.30;99.90
3380;DHT22;1703;51.964;7.642;2023-08-07T14:18:58;20.30;99.90
3380;DHT22;1703;51.964;7.642;2023-08-07T14:21:24;20.50;99.90
3380;DHT22;1703;51.964;7.642;2023-08-07T14:23:51;20.50;99.90
3380;DHT22;1703;51.964;7.642;2023-08-07T14:26:18;20.70;99.90
3380;DHT22;1703;51.964;7.642;2023-08-07T14:28:47;20.90;99.90
3380;DHT22;1703;51.964;7.642;2023-08-07T14:31:14;21.40;99.90
3380;DHT22;1703;51.964;7.642;2023-08-07T14:33:41;22.40;99.90
3380;DHT22;1703;51.964;7.642;2023-08-07T14:36:08;23.30;99.90
3380;DHT22;1703;51.964;7.642;2023-08-07T14:38:34;24.10;99.90
3380;DHT22;1703;51.964;7.642;2023-08-07T14:41:01;24.70;99.90
3380;DHT22;1703;51.964;7.642;2023-08-07T14:43:29;25.00;99.90
3380;DHT22;1703;51.964;7.642;2023-08-07T14:45:58;25.00;99.90
3380;DHT22;1703;51.964;7.642;2023-08-07T14:48:25;24.30;99.90
3380;DHT22;1703;51.964;7.642;2023-08-07T14:50:52;23.80;99.90
3380;DHT22;1703;51.964;7.642;2023-08-07T14:53:21;23.40;99.90
3380;DHT22;1703;51.964;7.642;2023-08-07T14:59:35;22.10;99.90
3380;DHT22;1703;51.964;7.642;2023-08-07T15:02:04;21.60;99.90
3380;DHT22;1703;51.964;7.642;2023-08-07T15:07:51;21.00;99.90
3380;DHT22;1703;51.964;7.642;2023-08-07T15:10:19;20.70;99.90
3380;DHT22;1703;51.964;7.642;2023-08-07T15:16:35;20.30;99.90
3380;DHT22;1703;51.964;7.642;2023-08-07T15:22:51;20.00;99.90
3380;DHT22;1703;51.964;7.642;2023-08-07T15:25:18;19.60;99.90
3380;DHT22;1703;51.964;7.642;2023-08-07T15:31:32;19.60;99.90
3380;DHT22;1703;51.964;7.642;2023-08-07T15:33:59;19.40;99.90
3380;DHT22;1703;51.964;7.642;2023-08-07T15:36:26;19.40;99.90
3380;DHT22;1703;51.964;7.642;2023-08-07T15:38:54;19.40;99.90
3380;DHT22;1703;51.964;7.642;2023-08-07T15:45:10;19.40;99.90
3380;DHT22;1703;51.964;7.642;2023-08-07T15:47:37;19.60;99.90
3380;DHT22;1703;51.964;7.642;2023-08-07T15:50:04;19.50;99.90
3380;DHT22;1703;51.964;7.642;2023-08-07T15:52:31;19.40;99.90
3380;DHT22;1703;51.964;7.642;2023-08-07T15:54:59;19.40;99.90
3380;DHT22;1703;51.964;7.642;2023-08-07T15:57:26;19.40;99.90
3380;DHT22;1703;51.964;7.642;2023-08-07T15:59:53;19.40;99.90
3380;DHT22;1703;51.964;7.642;2023-08-07T16:02:20;19.50;99.90
3380;DHT22;1703;51.964;7.642;2023-08-07T16:04:46;19.50;99.90
3380;DHT22;1703;51.964;7.642;2023-08-07T16:07:13;19.40;99.90
3380;DHT22;1703;51.964;7.642;2023-08-07T16:09:40;19.20;99.90
3380;DHT22;1703;51.964;7.642;2023-08-07T16:12:08;19.20;99.90
3380;DHT22;1703;51.964;7.642;2023-08-07T16:14:35;19.10;99.90
3380;DHT22;1703;51.964;7.642;2023-08-07T16:17:03;19.20;99.90
3380;DHT22;1703;51.964;7.642;2023-08-07T16:19:29;19.10;99.90
3380;DHT22;1703;51.964;7.642;2023-08-07T16:21:57;19.10;99.90
3380;DHT22;1703;51.964;7.642;2023-08-07T16:24:23;19.10;99.90
3380;DHT22;1703;51.964;7.642;2023-08-07T16:26:50;19.10;99.90
3380;DHT22;1703;51.964;7.642;2023-08-07T16:29:18;19.10;99.90
3380;DHT22;1703;51.964;7.642;2023-08-07T16:31:45;18.90;99.90
3380;DHT22;1703;51.964;7.642;2023-08-07T16:34:12;18.90;99.90
3380;DHT22;1703;51.964;7.642;2023-08-07T16:36:38;18.90;99.90
3380;DHT22;1703;51.964;7.642;2023-08-07T16:39:05;18.90;99.90
3380;DHT22;1703;51.964;7.642;2023-08-07T16:41:32;18.80;99.90
3380;DHT22;1703;51.964;7.642;2023-08-07T16:43:59;18.80;99.90
3380;DHT22;1703;51.964;7.642;2023-08-07T16:46:26;18.80;99.90
3380;DHT22;1703;51.964;7.642;2023-08-07T16:48:53;18.80;99.90
3380;DHT22;1703;51.964;7.642;2023-08-07T16:51:19;18.80;99.90
3380;DHT22;1703;51.964;7.642;2023-08-07T16:53:46;18.90;99.90
3380;DHT22;1703;51.964;7.642;2023-08-07T16:56:13;18.80;99.90
3380;DHT22;1703;51.964;7.642;2023-08-07T16:58:40;18.80;99.90
3380;DHT22;1703;51.964;7.642;2023-08-07T17:01:09;18.60;99.90
3380;DHT22;1703;51.964;7.642;2023-08-07T17:03:37;18.60;99.90
3380;DHT22;1703;51.964;7.642;2023-08-07T17:06:04;18.60;99.90
3380;DHT22;1703;51.964;7.642;2023-08-07T17:08:30;18.50;99.90
3380;DHT22;1703;51.964;7.642;2023-08-07T17:10:57;18.50;99.90
3380;DHT22;1703;51.964;7.642;2023-08-07T17:13:24;18.50;99.90
3380;DHT22;1703;51.964;7.642;2023-08-07T17:15:51;18.50;99.90
3380;DHT22;1703;51.964;7.642;2023-08-07T17:18:18;18.40;99.90
3380;DHT22;1703;51.964;7.642;2023-08-07T17:20:46;18.40;99.90
3380;DHT22;1703;51.964;7.642;2023-08-07T17:23:12;18.40;99.90
3380;DHT22;1703;51.964;7.642;2023-08-07T17:28:06;18.30;99.90
3380;DHT22;1703;51.964;7.642;2023-08-07T17:30:33;18.30;99.90
3380;DHT22;1703;51.964;7.642;2023-08-07T17:33:00;18.30;99.90
3380;DHT22;1703;51.964;7.642;2023-08-07T17:35:27;18.30;99.90
3380;DHT22;1703;51.964;7.642;2023-08-07T17:37:55;18.20;99.90
3380;DHT22;1703;51.964;7.642;2023-08-07T17:40:23;18.20;99.90
3380;DHT22;1703;51.964;7.642;2023-08-07T17:42:50;18.10;99.90
3380;DHT22;1703;51.964;7.642;2023-08-07T17:45:17;18.00;99.90
3380;DHT22;1703;51.964;7.642;2023-08-07T17:47:43;18.10;99.90
3380;DHT22;1703;51.964;7.642;2023-08-07T17:50:10;18.00;99.90
3380;DHT22;1703;51.964;7.642;2023-08-07T17:52:37;18.00;99.90
3380;DHT22;1703;51.964;7.642;2023-08-07T17:55:07;18.10;99.90
3380;DHT22;1703;51.964;7.642;2023-08-07T17:57:37;18.10;99.90
3380;DHT22;1703;51.964;7.642;2023-08-07T18:00:05;18.10;99.90
3380;DHT22;1703;51.964;7.642;2023-08-07T18:02:33;18.10;99.90
3380;DHT22;1703;51.964;7.642;2023-08-07T18:05:00;18.10;99.90
3380;DHT22;1703;51.964;7.642;2023-08-07T18:07:27;18.00;99.90